sensor_id;sensor_type;location;lat;lon;timestamp;temperature;humidity
71142;DHT22;58808;59.366;17.970;2023-08-17T00:00:14;18.00;99.90
71142;DHT22;58808;59.366;17.970;2023-08-17T00:02:41;18.00;99.90
71142;DHT22;58808;59.366;17.970;2023-08-17T00:05:07;17.90;99.90
71142;DHT22;58808;59.366;17.970;2023-08-17T00:07:33;17.90;99.90
71142;DHT22;58808;59.366;17.970;2023-08-17T00:09:59;17.90;99.90
71142;DHT22;58808;59.366;17.970;2023-08-17T00:12:25;17.90;99.90
71142;DHT22;58808;59.366;17.970;2023-08-17T00:14:51;17.80;99.90
71142;DHT22;58808;59.366;17.970;2023-08-17T00:17:17;17.80;99.90
71142;DHT22;58808;59.366;17.970;2023-08-17T00:19:43;17.80;99.90
71142;DHT22;58808;59.366;17.970;2023-08-17T00:22:09;17.70;99.90
71142;DHT22;58808;59.366;17.970;2023-08-17T00:24:34;17.70;99.90
71142;DHT22;58808;59.366;17.970;2023-08-17T00:27:00;17.70;99.90
71142;DHT22;58808;59.366;17.970;2023-08-17T00:29:26;17.60;99.90
71142;DHT22;58808;59.366;17.970;2023-08-17T00:31:52;17.60;99.90
71142;DHT22;58808;59.366;17.970;2023-08-17T00:34:18;17.60;99.90
71142;DHT22;58808;59.366;17.970;2023-08-17T00:36:44;17.50;99.90
71142;DHT22;58808;59.366;17.970;2023-08-17T00:39:10;17.50;99.90
71142;DHT22;58808;59.366;17.970;2023-08-17T00:41:36;17.50;99.90
71142;DHT22;58808;59.366;17.970;2023-08-17T00:44:01;17.50;99.90
71142;DHT22;58808;59.366;17.970;2023-08-17T00:46:27;17.50;99.90
71142;DHT22;58808;59.366;17.970;2023-08-17T00:48:54;17.50;99.90
71142;DHT22;58808;59.366;17.970;2023-08-17T00:51:25;17.50;99.90
71142;DHT22;58808;59.366;17.970;2023-08-17T00:53:54;17.50;99.90
71142;DHT22;58808;59.366;17.970;2023-08-17T00:56:21;17.40;99.90
71142;DHT22;58808;59.366;17.970;2023-08-17T00:58:46;17.40;99.90
71142;DHT22;58808;59.366;17.970;2023-08-17T01:01:12;17.40;99.90
71142;DHT22;58808;59.366;17.970;2023-08-17T01:03:40;17.30;99.90
71142;DHT22;58808;59.366;17.970;2023-08-17T01:06:11;17.30;99.90
71142;DHT22;58808;59.366;17.970;2023-08-17T01:08:38;17.30;99.90
71142;DHT22;58808;59.366;17.970;2023-08-17T01:16:27;17.20;99.90
71142;DHT22;58808;59.366;17.970;2023-08-17T01:18:54;17.20;99.90
71142;DHT22;58808;59.366;17.970;2023-08-17T01:21:21;17.20;99.90
71142;DHT22;58808;59.366;17.970;2023-08-17T01:23:49;17.20;99.90
71142;DHT22;58808;59.366;17.970;2023-08-17T01:26:16;17.20;99.90
71142;DHT22;58808;59.366;17.970;2023-08-17T01:28:44;17.10;99.90
71142;DHT22;58808;59.366;17.970;2023-08-17T01:31:43;17.10;99.90
71142;DHT22;58808;59.366;17.970;2023-08-17T01:34:18;17.10;99.90
71142;DHT22;58808;59.366;17.970;2023-08-17T01:36:52;17.10;99.90
71142;DHT22;58808;59.366;17.970;2023-08-17T01:39:21;17.10;99.90
71142;DHT22;58808;59.366;17.970;2023-08-17T01:41:48;17.10;99.90
71142;DHT22;58808;59.366;17.970;2023-08-17T01:44:14;17.10;99.90
71142;DHT22;58808;59.366;17.970;2023-08-17T01:46:40;17.10;99.90
71142;DHT22;58808;59.366;17.970;2023-08-17T01:49:07;17.10;99.90
71142;DHT22;58808;59.366;17.970;2023-08-17T01:51:33;17.10;99.90
71142;DHT22;58808;59.366;17.970;2023-08-17T01:53:58;17.10;99.90
71142;DHT22;58808;59.366;17.970;2023-08-17T01:56:24;17.10;99.90
71142;DHT22;58808;59.366;17.970;2023-08-17T01:58:49;17.10;99.90
71142;DHT22;58808;59.366;17.970;2023-08-17T02:01:15;17.10;99.90
71142;DHT22;58808;59.366;17.970;2023-08-17T02:03:41;17.10;99.90
71142;DHT22;58808;59.366;17.970;2023-08-17T02:06:06;17.00;99.90
71142;DHT22;58808;59.366;17.970;2023-08-17T02:08:33;17.00;99.90
71142;DHT22;58808;59.366;17.970;2023-08-17T02:10:59;17.00;99.90
71142;DHT22;58808;59.366;17.970;2023-08-17T02:13:25;17.00;99.90
71142;DHT22;58808;59.366;17.970;2023-08-17T02:15:52;17.00;99.90
71142;DHT22;58808;59.366;17.970;2023-08-17T02:18:18;16.90;99.90
71142;DHT22;58808;59.366;17.970;2023-08-17T02:20:44;17.00;99.90
71142;DHT22;58808;59.366;17.970;2023-08-17T02:23:09;16.90;99.90
71142;DHT22;58808;59.366;17.970;2023-08-17T02:25:38;16.90;99.90
71142;DHT22;58808;59.366;17.970;2023-08-17T02:28:04;16.90;99.90
71142;DHT22;58808;59.366;17.970;2023-08-17T02:30:30;16.90;99.90
71142;DHT22;58808;59.366;17.970;2023-08-17T02:32:56;16.90;99.90
71142;DHT22;58808;59.366;17.970;2023-08-17T02:35:22;16.90;99.90
71142;DHT22;58808;59.366;17.970;2023-08-17T02:37:48;16.90;99.90
71142;DHT22;58808;59.366;17.970;2023-08-17T02:40:14;16.90;99.90
71142;DHT22;58808;59.366;17.970;2023-08-17T02:42:39;16.90;99.90
71142;DHT22;58808;59.366;17.970;2023-08-17T02:45:08;16.90;99.90
71142;DHT22;58808;59.366;17.970;2023-08-17T02:47:34;16.90;99.90
71142;DHT22;58808;59.366;17.970;2023-08-17T02:50:00;16.90;99.90
71142;DHT22;58808;59.366;17.970;2023-08-17T02:52:25;16.90;99.90
71142;DHT22;58808;59.366;17.970;2023-08-17T02:54:51;16.90;99.90
71142;DHT22;58808;59.366;17.970;2023-08-17T02:57:17;16.80;99.90
71142;DHT22;58808;59.366;17.970;2023-08-17T02:59:43;16.80;99.90
71142;DHT22;58808;59.366;17.970;2023-08-17T03:02:09;16.80;99.90
71142;DHT22;58808;59.366;17.970;2023-08-17T03:04:35;16.70;99.90
71142;DHT22;58808;59.366;17.970;2023-08-17T03:07:00;16.70;99.90
71142;DHT22;58808;59.366;17.970;2023-08-17T03:09:26;16.70;99.90
71142;DHT22;58808;59.366;17.970;2023-08-17T03:11:52;16.70;99.90
71142;DHT22;58808;59.366;17.970;2023-08-17T03:14:18;16.70;99.90
71142;DHT22;58808;59.366;17.970;2023-08-17T03:16:43;16.70;99.90
71142;DHT22;58808;59.366;17.970;2023-08-17T03:19:09;16.70;99.90
71142;DHT22;58808;59.366;17.970;2023-08-17T03:21:37;16.70;99.90
71142;DHT22;58808;59.366;17.970;2023-08-17T03:24:03;16.70;99.90
71142;DHT22;58808;59.366;17.970;2023-08-17T03:26:29;16.80;99.90
71142;DHT22;58808;59.366;17.970;2023-08-17T03:28:54;16.80;99.90
71142;DHT22;58808;59.366;17.970;2023-08-17T03:31:21;16.80;99.90
71142;DHT22;58808;59.366;17.970;2023-08-17T03:33:47;16.80;99.90
71142;DHT22;58808;59.366;17.970;2023-08-17T03:36:13;16.80;99.90
71142;DHT22;58808;59.366;17.970;2023-08-17T03:38:38;16.80;99.90
71142;DHT22;58808;59.366;17.970;2023-08-17T03:41:05;16.80;99.90
71142;DHT22;58808;59.366;17.970;2023-08-17T03:43:31;16.80;99.90
71142;DHT22;58808;59.366;17.970;2023-08-17T03:45:56;16.80;99.90
71142;DHT22;58808;59.366;17.970;2023-08-17T03:48:22;16.80;99.90
71142;DHT22;58808;59.366;17.970;2023-08-17T03:50:52;16.80;99.90
71142;DHT22;58808;59.366;17.970;2023-08-17T03:53:18;16.80;99.90
71142;DHT22;58808;59.366;17.970;2023-08-17T03:55:47;16.80;99.90
71142;DHT22;58808;59.366;17.970;2023-08-17T03:58:13;16.80;99.90
71142;DHT22;58808;59.366;17.970;2023-08-17T04:00:39;16.80;99.90
71142;DHT22;58808;59.366;17.970;2023-08-17T04:03:06;16.80;99.90
71142;DHT22;58808;59.366;17.970;2023-08-17T04:05:32;16.80;99.90
71142;DHT22;58808;59.366;17.970;2023-08-17T04:07:59;16.80;99.90
71142;DHT22;58808;59.366;17.970;2023-08-17T04:10:28;16.80;99.90
71142;DHT22;58808;59.366;17.970;2023-08-17T04:12:54;16.80;99.90
71142;DHT22;58808;59.366;17.970;2023-08-17T04:15:19;16.80;99.90
71142;DHT22;58808;59.366;17.970;2023-08-17T04:17:45;16.80;99.90
71142;DHT22;58808;59.366;17.970;2023-08-17T04:20:11;16.90;99.90
71142;DHT22;58808;59.366;17.970;2023-08-17T04:22:36;16.80;99.90
71142;DHT22;58808;59.366;17.970;2023-08-17T04:25:02;16.90;99.90
71142;DHT22;58808;59.366;17.970;2023-08-17T04:27:28;16.80;99.90
71142;DHT22;58808;59.366;17.970;2023-08-17T04:29:53;16.90;99.90
71142;DHT22;58808;59.366;17.970;2023-08-17T04:32:19;16.90;99.90
71142;DHT22;58808;59.366;17.970;2023-08-17T04:34:45;16.90;99.90
71142;DHT22;58808;59.366;17.970;2023-08-17T04:37:11;16.90;99.90
71142;DHT22;58808;59.366;17.970;2023-08-17T04:39:37;16.90;99.90
71142;DHT22;58808;59.366;17.970;2023-08-17T04:42:03;17.00;99.90
71142;DHT22;58808;59.366;17.970;2023-08-17T04:44:29;17.00;99.90
71142;DHT22;58808;59.366;17.970;2023-08-17T04:46:55;17.00;99.90
71142;DHT22;58808;59.366;17.970;2023-08-17T04:49:21;17.00;99.90
71142;DHT22;58808;59.366;17.970;2023-08-17T04:51:46;17.00;99.90
71142;DHT22;58808;59.366;17.970;2023-08-17T04:54:12;17.00;99.90
71142;DHT22;58808;59.366;17.970;2023-08-17T04:56:38;17.10;99.90
71142;DHT22;58808;59.366;17.970;2023-08-17T04:59:04;17.10;99.90
71142;DHT22;58808;59.366;17.970;2023-08-17T05:01:29;17.10;99.90
71142;DHT22;58808;59.366;17.970;2023-08-17T05:03:55;17.20;99.90
71142;DHT22;58808;59.366;17.970;2023-08-17T05:06:21;17.10;99.90
71142;DHT22;58808;59.366;17.970;2023-08-17T05:08:46;17.10;99.90
71142;DHT22;58808;59.366;17.970;2023-08-17T05:11:12;17.10;99.90
71142;DHT22;58808;59.366;17.970;2023-08-17T05:13:38;17.10;99.90
71142;DHT22;58808;59.366;17.970;2023-08-17T05:16:04;17.10;99.90
71142;DHT22;58808;59.366;17.970;2023-08-17T05:18:30;17.10;99.90
71142;DHT22;58808;59.366;17.970;2023-08-17T05:20:56;17.10;99.90
71142;DHT22;58808;59.366;17.970;2023-08-17T05:23:22;17.20;99.90
71142;DHT22;58808;59.366;17.970;2023-08-17T05:25:47;17.20;99.90
71142;DHT22;58808;59.366;17.970;2023-08-17T05:28:13;17.20;99.90
71142;DHT22;58808;59.366;17.970;2023-08-17T05:30:39;17.30;99.90
71142;DHT22;58808;59.366;17.970;2023-08-17T05:33:05;17.30;99.90
71142;DHT22;58808;59.366;17.970;2023-08-17T05:35:32;17.30;99.90
71142;DHT22;58808;59.366;17.970;2023-08-17T05:37:58;17.30;99.90
71142;DHT22;58808;59.366;17.970;2023-08-17T05:40:23;17.40;99.90
71142;DHT22;58808;59.366;17.970;2023-08-17T05:42:49;17.40;99.90
71142;DHT22;58808;59.366;17.970;2023-08-17T05:45:15;17.40;99.90
71142;DHT22;58808;59.366;17.970;2023-08-17T05:47:40;17.40;99.90
71142;DHT22;58808;59.366;17.970;2023-08-17T05:50:06;17.40;99.90
71142;DHT22;58808;59.366;17.970;2023-08-17T05:52:32;17.50;99.90
71142;DHT22;58808;59.366;17.970;2023-08-17T05:54:58;17.50;99.90
71142;DHT22;58808;59.366;17.970;2023-08-17T05:57:23;17.50;99.90
71142;DHT22;58808;59.366;17.970;2023-08-17T05:59:49;17.50;99.90
71142;DHT22;58808;59.366;17.970;2023-08-17T06:02:15;17.50;99.90
71142;DHT22;58808;59.366;17.970;2023-08-17T06:04:40;17.60;99.90
71142;DHT22;58808;59.366;17.970;2023-08-17T06:07:06;17.60;99.90
71142;DHT22;58808;59.366;17.970;2023-08-17T06:09:32;17.60;99.90
71142;DHT22;58808;59.366;17.970;2023-08-17T06:11:58;17.60;99.90
71142;DHT22;58808;59.366;17.970;2023-08-17T06:14:23;17.60;99.90
71142;DHT22;58808;59.366;17.970;2023-08-17T06:16:49;17.70;99.90
71142;DHT22;58808;59.366;17.970;2023-08-17T06:19:15;17.70;99.90
71142;DHT22;58808;59.366;17.970;2023-08-17T06:21:41;17.70;99.90
71142;DHT22;58808;59.366;17.970;2023-08-17T06:24:07;17.70;99.90
71142;DHT22;58808;59.366;17.970;2023-08-17T06:26:32;17.80;99.90
71142;DHT22;58808;59.366;17.970;2023-08-17T06:28:58;17.80;99.90
71142;DHT22;58808;59.366;17.970;2023-08-17T06:31:24;17.80;99.90
71142;DHT22;58808;59.366;17.970;2023-08-17T06:33:53;17.90;99.90
71142;DHT22;58808;59.366;17.970;2023-08-17T06:36:20;17.90;99.90
71142;DHT22;58808;59.366;17.970;2023-08-17T06:38:45;17.90;99.90
71142;DHT22;58808;59.366;17.970;2023-08-17T06:41:11;17.90;99.90
71142;DHT22;58808;59.366;17.970;2023-08-17T06:43:36;17.90;99.90
71142;DHT22;58808;59.366;17.970;2023-08-17T06:46:02;17.90;99.90
71142;DHT22;58808;59.366;17.970;2023-08-17T06:48:28;18.00;99.90
71142;DHT22;58808;59.366;17.970;2023-08-17T06:50:54;18.00;99.90
71142;DHT22;58808;59.366;17.970;2023-08-17T06:53:19;18.10;99.90
71142;DHT22;58808;59.366;17.970;2023-08-17T06:55:45;18.10;99.90
71142;DHT22;58808;59.366;17.970;2023-08-17T06:58:11;18.10;99.90
71142;DHT22;58808;59.366;17.970;2023-08-17T07:00:37;18.20;99.90
71142;DHT22;58808;59.366;17.970;2023-08-17T07:03:06;18.20;99.90
71142;DHT22;58808;59.366;17.970;2023-08-17T07:05:32;18.20;99.90
71142;DHT22;58808;59.366;17.970;2023-08-17T07:07:58;18.30;99.90
71142;DHT22;58808;59.366;17.970;2023-08-17T07:10:25;18.30;99.90
71142;DHT22;58808;59.366;17.970;2023-08-17T07:12:50;18.30;99.90
71142;DHT22;58808;59.366;17.970;2023-08-17T07:15:16;18.40;99.90
71142;DHT22;58808;59.366;17.970;2023-08-17T07:17:42;18.50;99.90
71142;DHT22;58808;59.366;17.970;2023-08-17T07:20:08;18.60;99.90
71142;DHT22;58808;59.366;17.970;2023-08-17T07:22:35;18.70;99.90
71142;DHT22;58808;59.366;17.970;2023-08-17T07:25:00;18.70;99.90
71142;DHT22;58808;59.366;17.970;2023-08-17T07:27:26;18.70;99.90
71142;DHT22;58808;59.366;17.970;2023-08-17T07:29:52;18.70;99.90
71142;DHT22;58808;59.366;17.970;2023-08-17T07:32:18;18.70;99.90
71142;DHT22;58808;59.366;17.970;2023-08-17T07:34:44;18.70;99.90
71142;DHT22;58808;59.366;17.970;2023-08-17T07:37:10;18.80;99.90
71142;DHT22;58808;59.366;17.970;2023-08-17T07:39:35;18.90;99.90
71142;DHT22;58808;59.366;17.970;2023-08-17T07:42:01;19.00;99.90
71142;DHT22;58808;59.366;17.970;2023-08-17T07:44:27;19.10;99.90
71142;DHT22;58808;59.366;17.970;2023-08-17T07:46:54;19.10;99.90
71142;DHT22;58808;59.366;17.970;2023-08-17T07:49:20;19.30;99.90
71142;DHT22;58808;59.366;17.970;2023-08-17T07:51:45;19.30;99.90
71142;DHT22;58808;59.366;17.970;2023-08-17T07:54:11;19.30;99.90
71142;DHT22;58808;59.366;17.970;2023-08-17T07:56:37;19.40;99.90
71142;DHT22;58808;59.366;17.970;2023-08-17T07:59:03;19.60;99.90
71142;DHT22;58808;59.366;17.970;2023-08-17T08:01:29;19.70;99.90
71142;DHT22;58808;59.366;17.970;2023-08-17T08:03:54;19.80;99.90
71142;DHT22;58808;59.366;17.970;2023-08-17T08:06:20;19.90;99.90
71142;DHT22;58808;59.366;17.970;2023-08-17T08:08:46;20.00;99.90
71142;DHT22;58808;59.366;17.970;2023-08-17T08:11:12;20.10;99.90
71142;DHT22;58808;59.366;17.970;2023-08-17T08:13:37;20.30;99.90
71142;DHT22;58808;59.366;17.970;2023-08-17T08:16:03;20.30;99.90
71142;DHT22;58808;59.366;17.970;2023-08-17T08:18:29;20.40;99.90
71142;DHT22;58808;59.366;17.970;2023-08-17T08:20:54;20.60;99.90
71142;DHT22;58808;59.366;17.970;2023-08-17T08:23:20;20.60;99.90
71142;DHT22;58808;59.366;17.970;2023-08-17T08:25:46;20.60;99.90
71142;DHT22;58808;59.366;17.970;2023-08-17T08:28:11;20.50;99.90
71142;DHT22;58808;59.366;17.970;2023-08-17T08:30:37;20.50;99.90
71142;DHT22;58808;59.366;17.970;2023-08-17T08:33:03;20.60;99.90
71142;DHT22;58808;59.366;17.970;2023-08-17T08:35:29;20.70;99.90
71142;DHT22;58808;59.366;17.970;2023-08-17T08:37:54;20.70;99.90
71142;DHT22;58808;59.366;17.970;2023-08-17T08:40:28;20.70;99.90
71142;DHT22;58808;59.366;17.970;2023-08-17T08:42:55;20.70;99.90
71142;DHT22;58808;59.366;17.970;2023-08-17T08:45:22;20.70;99.90
71142;DHT22;58808;59.366;17.970;2023-08-17T08:47:48;20.60;99.90
71142;DHT22;58808;59.366;17.970;2023-08-17T08:50:18;20.70;99.90
71142;DHT22;58808;59.366;17.970;2023-08-17T08:52:50;20.70;99.90
71142;DHT22;58808;59.366;17.970;2023-08-17T08:55:18;20.70;99.90
71142;DHT22;58808;59.366;17.970;2023-08-17T08:57:46;20.80;99.90
71142;DHT22;58808;59.366;17.970;2023-08-17T09:00:13;20.70;99.90
71142;DHT22;58808;59.366;17.970;2023-08-17T09:02:40;20.70;99.90
71142;DHT22;58808;59.366;17.970;2023-08-17T09:05:10;20.70;99.90
71142;DHT22;58808;59.366;17.970;2023-08-17T09:07:37;20.80;99.90
71142;DHT22;58808;59.366;17.970;2023-08-17T09:10:04;21.00;99.90
71142;DHT22;58808;59.366;17.970;2023-08-17T09:12:30;21.20;99.90
71142;DHT22;58808;59.366;17.970;2023-08-17T09:14:56;21.50;99.90
71142;DHT22;58808;59.366;17.970;2023-08-17T09:17:26;21.70;99.90
71142;DHT22;58808;59.366;17.970;2023-08-17T09:19:52;21.80;99.90
71142;DHT22;58808;59.366;17.970;2023-08-17T09:22:24;21.90;99.90
71142;DHT22;58808;59.366;17.970;2023-08-17T09:24:51;21.80;99.90
71142;DHT22;58808;59.366;17.970;2023-08-17T09:27:17;22.00;99.90
71142;DHT22;58808;59.366;17.970;2023-08-17T09:29:43;22.20;99.90
71142;DHT22;58808;59.366;17.970;2023-08-17T09:32:11;22.40;99.90
71142;DHT22;58808;59.366;17.970;2023-08-17T09:34:37;22.40;99.90
71142;DHT22;58808;59.366;17.970;2023-08-17T09:37:03;22.50;99.90
71142;DHT22;58808;59.366;17.970;2023-08-17T09:39:30;22.70;99.90
71142;DHT22;58808;59.366;17.970;2023-08-17T09:41:56;22.70;99.90
71142;DHT22;58808;59.366;17.970;2023-08-17T09:44:22;22.90;99.90
71142;DHT22;58808;59.366;17.970;2023-08-17T09:46:48;22.90;99.90
71142;DHT22;58808;59.366;17.970;2023-08-17T09:49:14;22.70;99.90
71142;DHT22;58808;59.366;17.970;2023-08-17T09:51:43;22.50;99.90
71142;DHT22;58808;59.366;17.970;2023-08-17T09:54:21;22.50;99.90
71142;DHT22;58808;59.366;17.970;2023-08-17T09:56:50;22.50;99.90
71142;DHT22;58808;59.366;17.970;2023-08-17T09:59:16;22.40;99.90
71142;DHT22;58808;59.366;17.970;2023-08-17T10:01:42;22.30;99.90
71142;DHT22;58808;59.366;17.970;2023-08-17T10:04:09;22.40;99.90
71142;DHT22;58808;59.366;17.970;2023-08-17T10:06:37;22.40;99.90
71142;DHT22;58808;59.366;17.970;2023-08-17T10:09:05;22.30;99.90
71142;DHT22;58808;59.366;17.970;2023-08-17T10:11:35;22.20;99.90
71142;DHT22;58808;59.366;17.970;2023-08-17T10:14:11;22.30;99.90
71142;DHT22;58808;59.366;17.970;2023-08-17T10:16:46;22.60;99.90
71142;DHT22;58808;59.366;17.970;2023-08-17T10:19:37;23.00;99.90
71142;DHT22;58808;59.366;17.970;2023-08-17T10:22:16;23.40;99.90
71142;DHT22;58808;59.366;17.970;2023-08-17T10:24:44;23.70;99.90
71142;DHT22;58808;59.366;17.970;2023-08-17T10:27:10;23.80;99.90
71142;DHT22;58808;59.366;17.970;2023-08-17T10:29:38;23.80;99.90
71142;DHT22;58808;59.366;17.970;2023-08-17T10:32:05;23.80;99.90
71142;DHT22;58808;59.366;17.970;2023-08-17T10:34:34;23.60;99.90
71142;DHT22;58808;59.366;17.970;2023-08-17T10:37:00;23.40;99.90
71142;DHT22;58808;59.366;17.970;2023-08-17T10:39:28;23.30;99.90
71142;DHT22;58808;59.366;17.970;2023-08-17T10:41:55;23.20;99.90
71142;DHT22;58808;59.366;17.970;2023-08-17T10:44:40;23.20;99.90
71142;DHT22;58808;59.366;17.970;2023-08-17T10:47:30;23.40;99.90
71142;DHT22;58808;59.366;17.970;2023-08-17T10:50:20;23.60;99.90
71142;DHT22;58808;59.366;17.970;2023-08-17T10:52:48;23.80;99.30
71142;DHT22;58808;59.366;17.970;2023-08-17T10:55:14;23.80;98.50
71142;DHT22;58808;59.366;17.970;2023-08-17T10:57:42;23.70;97.90
71142;DHT22;58808;59.366;17.970;2023-08-17T11:00:19;23.60;97.80
71142;DHT22;58808;59.366;17.970;2023-08-17T11:03:06;23.40;98.60
71142;DHT22;58808;59.366;17.970;2023-08-17T11:08:07;23.00;99.10
71142;DHT22;58808;59.366;17.970;2023-08-17T11:10:37;22.80;99.90
71142;DHT22;58808;59.366;17.970;2023-08-17T11:13:04;22.70;99.80
71142;DHT22;58808;59.366;17.970;2023-08-17T11:15:42;22.60;99.90
71142;DHT22;58808;59.366;17.970;2023-08-17T11:18:08;22.60;99.90
71142;DHT22;58808;59.366;17.970;2023-08-17T11:20:35;22.50;99.90
71142;DHT22;58808;59.366;17.970;2023-08-17T11:23:01;22.40;99.90
71142;DHT22;58808;59.366;17.970;2023-08-17T11:25:28;22.40;99.90
71142;DHT22;58808;59.366;17.970;2023-08-17T11:27:54;22.50;99.90
71142;DHT22;58808;59.366;17.970;2023-08-17T11:30:23;22.40;99.90
71142;DHT22;58808;59.366;17.970;2023-08-17T11:32:53;22.40;99.90
71142;DHT22;58808;59.366;17.970;2023-08-17T11:35:19;22.40;99.90
71142;DHT22;58808;59.366;17.970;2023-08-17T11:37:45;22.40;99.90
71142;DHT22;58808;59.366;17.970;2023-08-17T11:40:11;22.40;99.90
71142;DHT22;58808;59.366;17.970;2023-08-17T11:42:37;22.50;99.90
71142;DHT22;58808;59.366;17.970;2023-08-17T11:45:05;22.50;99.90
71142;DHT22;58808;59.366;17.970;2023-08-17T11:47:31;22.50;99.90
71142;DHT22;58808;59.366;17.970;2023-08-17T11:50:01;22.50;99.90
71142;DHT22;58808;59.366;17.970;2023-08-17T11:52:29;22.60;99.90
71142;DHT22;58808;59.366;17.970;2023-08-17T11:54:56;22.60;99.90
71142;DHT22;58808;59.366;17.970;2023-08-17T11:57:22;22.70;99.90
71142;DHT22;58808;59.366;17.970;2023-08-17T11:59:47;23.00;99.90
71142;DHT22;58808;59.366;17.970;2023-08-17T12:02:13;23.40;98.10
71142;DHT22;58808;59.366;17.970;2023-08-17T12:04:39;23.80;97.20
71142;DHT22;58808;59.366;17.970;2023-08-17T12:07:05;23.90;97.10
71142;DHT22;58808;59.366;17.970;2023-08-17T12:09:34;23.90;95.50
71142;DHT22;58808;59.366;17.970;2023-08-17T12:12:00;23.70;95.40
71142;DHT22;58808;59.366;17.970;2023-08-17T12:14:27;23.50;95.80
71142;DHT22;58808;59.366;17.970;2023-08-17T12:16:54;23.40;95.40
71142;DHT22;58808;59.366;17.970;2023-08-17T12:19:20;23.20;95.80
71142;DHT22;58808;59.366;17.970;2023-08-17T12:21:48;23.10;96.40
71142;DHT22;58808;59.366;17.970;2023-08-17T12:24:14;23.00;96.70
71142;DHT22;58808;59.366;17.970;2023-08-17T12:26:47;22.90;97.70
71142;DHT22;58808;59.366;17.970;2023-08-17T12:29:13;22.80;97.60
71142;DHT22;58808;59.366;17.970;2023-08-17T12:31:38;22.80;98.80
71142;DHT22;58808;59.366;17.970;2023-08-17T12:34:04;22.80;97.20
71142;DHT22;58808;59.366;17.970;2023-08-17T12:36:32;22.80;98.00
71142;DHT22;58808;59.366;17.970;2023-08-17T12:38:58;22.90;96.50
71142;DHT22;58808;59.366;17.970;2023-08-17T12:41:23;23.00;95.30
71142;DHT22;58808;59.366;17.970;2023-08-17T12:43:49;23.20;94.80
71142;DHT22;58808;59.366;17.970;2023-08-17T12:46:15;23.40;94.30
71142;DHT22;58808;59.366;17.970;2023-08-17T12:48:41;23.80;92.70
71142;DHT22;58808;59.366;17.970;2023-08-17T12:51:06;24.10;90.60
71142;DHT22;58808;59.366;17.970;2023-08-17T12:53:32;24.00;91.70
71142;DHT22;58808;59.366;17.970;2023-08-17T12:55:58;23.80;91.70
71142;DHT22;58808;59.366;17.970;2023-08-17T12:58:24;23.70;93.00
71142;DHT22;58808;59.366;17.970;2023-08-17T13:00:49;23.40;93.20
71142;DHT22;58808;59.366;17.970;2023-08-17T13:03:18;23.30;93.40
71142;DHT22;58808;59.366;17.970;2023-08-17T13:05:44;23.20;93.50
71142;DHT22;58808;59.366;17.970;2023-08-17T13:08:10;23.10;94.00
71142;DHT22;58808;59.366;17.970;2023-08-17T13:10:36;23.00;94.40
71142;DHT22;58808;59.366;17.970;2023-08-17T13:13:02;23.00;94.60
71142;DHT22;58808;59.366;17.970;2023-08-17T13:15:29;23.00;94.90
71142;DHT22;58808;59.366;17.970;2023-08-17T13:17:54;22.90;95.10
71142;DHT22;58808;59.366;17.970;2023-08-17T13:20:20;23.10;95.00
71142;DHT22;58808;59.366;17.970;2023-08-17T13:22:46;23.20;93.40
71142;DHT22;58808;59.366;17.970;2023-08-17T13:25:12;23.20;94.10
71142;DHT22;58808;59.366;17.970;2023-08-17T13:27:37;23.20;94.10
71142;DHT22;58808;59.366;17.970;2023-08-17T13:30:03;23.10;94.60
71142;DHT22;58808;59.366;17.970;2023-08-17T13:32:29;23.10;94.10
71142;DHT22;58808;59.366;17.970;2023-08-17T13:34:55;23.20;94.20
71142;DHT22;58808;59.366;17.970;2023-08-17T13:37:21;23.60;92.40
71142;DHT22;58808;59.366;17.970;2023-08-17T13:39:47;24.10;91.00
71142;DHT22;58808;59.366;17.970;2023-08-17T13:42:13;24.50;91.40
71142;DHT22;58808;59.366;17.970;2023-08-17T13:44:39;25.00;91.40
71142;DHT22;58808;59.366;17.970;2023-08-17T13:47:05;25.30;90.40
71142;DHT22;58808;59.366;17.970;2023-08-17T13:49:31;25.30;87.60
71142;DHT22;58808;59.366;17.970;2023-08-17T13:51:56;25.10;88.00
71142;DHT22;58808;59.366;17.970;2023-08-17T13:54:23;24.80;88.50
71142;DHT22;58808;59.366;17.970;2023-08-17T13:56:48;24.50;89.50
71142;DHT22;58808;59.366;17.970;2023-08-17T13:59:14;24.30;90.90
71142;DHT22;58808;59.366;17.970;2023-08-17T14:01:40;24.10;89.80
71142;DHT22;58808;59.366;17.970;2023-08-17T14:04:06;23.90;90.60
71142;DHT22;58808;59.366;17.970;2023-08-17T14:06:37;23.80;91.20
71142;DHT22;58808;59.366;17.970;2023-08-17T14:09:03;23.70;91.80
71142;DHT22;58808;59.366;17.970;2023-08-17T14:11:28;23.60;92.20
71142;DHT22;58808;59.366;17.970;2023-08-17T14:13:54;23.50;91.60
71142;DHT22;58808;59.366;17.970;2023-08-17T14:16:19;23.60;92.40
71142;DHT22;58808;59.366;17.970;2023-08-17T14:18:45;23.80;91.60
71142;DHT22;58808;59.366;17.970;2023-08-17T14:21:11;24.00;91.10
71142;DHT22;58808;59.366;17.970;2023-08-17T14:23:38;24.20;88.00
71142;DHT22;58808;59.366;17.970;2023-08-17T14:26:04;24.40;88.40
71142;DHT22;58808;59.366;17.970;2023-08-17T14:28:30;24.50;85.10
71142;DHT22;58808;59.366;17.970;2023-08-17T14:30:56;24.60;88.80
71142;DHT22;58808;59.366;17.970;2023-08-17T14:33:21;24.70;87.10
71142;DHT22;58808;59.366;17.970;2023-08-17T14:35:47;24.70;87.80
71142;DHT22;58808;59.366;17.970;2023-08-17T14:38:13;24.50;88.30
71142;DHT22;58808;59.366;17.970;2023-08-17T14:40:46;24.20;86.70
71142;DHT22;58808;59.366;17.970;2023-08-17T14:43:13;24.00;89.30
71142;DHT22;58808;59.366;17.970;2023-08-17T14:45:42;23.80;90.30
71142;DHT22;58808;59.366;17.970;2023-08-17T14:48:08;23.70;90.00
71142;DHT22;58808;59.366;17.970;2023-08-17T14:50:35;23.50;89.70
71142;DHT22;58808;59.366;17.970;2023-08-17T14:53:01;23.50;89.80
71142;DHT22;58808;59.366;17.970;2023-08-17T14:55:29;23.60;90.60
71142;DHT22;58808;59.366;17.970;2023-08-17T14:57:55;23.60;90.30
71142;DHT22;58808;59.366;17.970;2023-08-17T15:00:21;23.70;90.30
71142;DHT22;58808;59.366;17.970;2023-08-17T15:02:46;23.60;90.20
71142;DHT22;58808;59.366;17.970;2023-08-17T15:05:12;23.70;90.80
71142;DHT22;58808;59.366;17.970;2023-08-17T15:07:38;23.70;90.60
71142;DHT22;58808;59.366;17.970;2023-08-17T15:10:04;23.80;90.70
71142;DHT22;58808;59.366;17.970;2023-08-17T15:12:30;23.80;90.60
71142;DHT22;58808;59.366;17.970;2023-08-17T15:14:55;23.80;90.70
71142;DHT22;58808;59.366;17.970;2023-08-17T15:17:21;23.80;90.80
71142;DHT22;58808;59.366;17.970;2023-08-17T15:19:46;23.70;91.10